Time;durP1;ratioP1;P1;durP2;ratioP2;P2;SDS_P1;SDS_P2;PMS_P1;PMS_P2;Temp;Humidity;BMP_temperature;BMP_pressure;BME280_temperature;BME280_humidity;BME280_pressure;Samples;Min_cycle;Max_cycle;Signal;HPM_P1;HPM_P2
2022/05/05 00:00:08;;;;;;;12.52;6.30;;;8.10;99.90;;;;;;5036107;28;20049;-81
2022/05/05 00:02:35;;;;;;;11.35;5.72;;;8.10;99.90;;;;;;5045070;28;20137;-80
2022/05/05 00:05:01;;;;;;;12.40;6.75;;;8.10;99.90;;;;;;5042087;28;20098;-79
2022/05/05 00:07:27;;;;;;;10.10;6.50;;;8.10;99.90;;;;;;5045833;28;20160;-79
2022/05/05 00:09:53;;;;;;;14.02;6.47;;;8.10;99.90;;;;;;5041047;28;20120;-80
2022/05/05 00:15:05;;;;;;;15.60;6.28;;;8.10;99.90;;;;;;5043660;28;20472;-79
2022/05/05 00:17:33;;;;;;;10.57;6.43;;;8.10;99.90;;;;;;5014752;28;20049;-80
2022/05/05 00:20:00;;;;;;;10.18;5.82;;;8.10;99.90;;;;;;5044985;28;20052;-79
2022/05/05 00:22:26;;;;;;;10.20;6.03;;;8.10;99.90;;;;;;5044995;28;20044;-79
2022/05/05 00:24:52;;;;;;;13.15;5.80;;;8.20;99.90;;;;;;5029500;28;20045;-79
2022/05/05 00:27:17;;;;;;;13.38;6.70;;;8.10;99.90;;;;;;5042575;28;20140;-79
2022/05/05 00:29:43;;;;;;;11.82;5.45;;;8.20;99.90;;;;;;5034011;28;20045;-80
2022/05/05 00:32:11;;;;;;;14.23;6.13;;;8.10;99.90;;;;;;5049855;28;20267;-80
2022/05/05 00:34:37;;;;;;;10.05;5.85;;;8.20;99.90;;;;;;5046906;28;20045;-79
2022/05/05 00:37:03;;;;;;;12.85;5.60;;;8.20;99.90;;;;;;5048229;28;20048;-79
2022/05/05 00:39:28;;;;;;;11.63;5.40;;;8.20;99.90;;;;;;5045338;28;20139;-79
2022/05/05 00:41:54;;;;;;;13.23;6.55;;;8.20;99.90;;;;;;5055353;28;20040;-80
2022/05/05 00:44:20;;;;;;;10.00;5.25;;;8.20;99.90;;;;;;5019149;28;20037;-79
2022/05/05 00:46:48;;;;;;;11.52;5.63;;;8.20;99.90;;;;;;5047855;28;20083;-80
2022/05/05 00:49:14;;;;;;;12.43;5.35;;;8.20;99.90;;;;;;5025075;28;20072;-79
2022/05/05 00:51:46;;;;;;;8.85;5.55;;;8.20;99.90;;;;;;5046173;28;20656;-79
2022/05/05 00:54:11;;;;;;;15.50;5.72;;;8.20;99.90;;;;;;5029872;28;20048;-80
2022/05/05 00:56:38;;;;;;;11.82;5.90;;;8.20;99.90;;;;;;5039207;28;20048;-78
2022/05/05 00:59:05;;;;;;;10.93;5.78;;;8.20;99.90;;;;;;5046318;28;20065;-80
2022/05/05 01:01:31;;;;;;;16.73;5.22;;;8.20;99.90;;;;;;5019551;28;20050;-80
2022/05/05 01:03:57;;;;;;;15.52;6.07;;;8.20;99.90;;;;;;5047449;28;20136;-79
2022/05/05 01:06:23;;;;;;;10.00;5.85;;;8.20;99.90;;;;;;5049848;28;20111;-79
2022/05/05 01:08:48;;;;;;;13.05;6.10;;;8.20;99.90;;;;;;5039973;28;20049;-79
2022/05/05 01:11:14;;;;;;;11.88;5.45;;;8.20;99.90;;;;;;5041440;28;20045;-78
2022/05/05 01:13:42;;;;;;;11.45;5.40;;;8.20;99.90;;;;;;5041623;28;20040;-80
2022/05/05 01:16:09;;;;;;;10.73;5.88;;;8.30;99.90;;;;;;5028425;28;20762;-79
2022/05/05 01:18:34;;;;;;;9.07;5.53;;;8.30;99.90;;;;;;5045252;28;20508;-80
2022/05/05 01:21:00;;;;;;;8.70;5.50;;;8.30;99.90;;;;;;5046440;28;20128;-79
2022/05/05 01:23:25;;;;;;;11.30;5.68;;;8.30;99.90;;;;;;5034515;28;20103;-79
2022/05/05 01:28:41;;;;;;;9.30;4.93;;;8.30;99.90;;;;;;5038944;28;20545;-79
2022/05/05 01:31:09;;;;;;;9.02;5.55;;;8.30;99.90;;;;;;5034328;28;20090;-79
2022/05/05 01:33:35;;;;;;;14.40;6.63;;;8.30;99.90;;;;;;5051502;28;20033;-79
2022/05/05 01:36:02;;;;;;;10.15;5.18;;;8.30;99.90;;;;;;5033968;28;20047;-79
2022/05/05 01:38:36;;;;;;;12.80;4.93;;;8.30;99.90;;;;;;5025610;28;20624;-80
2022/05/05 01:41:10;;;;;;;9.43;5.05;;;8.30;99.90;;;;;;5036235;28;20085;-80
2022/05/05 01:43:36;;;;;;;15.45;5.60;;;8.40;99.90;;;;;;5048307;28;20044;-79
2022/05/05 01:46:02;;;;;;;12.57;5.60;;;8.40;99.90;;;;;;5052307;28;20041;-79
2022/05/05 01:48:28;;;;;;;11.88;5.40;;;8.40;99.90;;;;;;5054537;28;20063;-78
2022/05/05 01:50:54;;;;;;;12.35;5.90;;;8.40;99.90;;;;;;5043300;28;20140;-80
2022/05/05 01:53:19;;;;;;;12.60;5.50;;;8.40;99.90;;;;;;5042382;28;20504;-78
2022/05/05 01:55:45;;;;;;;9.88;5.82;;;8.30;99.90;;;;;;5038352;28;20138;-79
2022/05/05 01:58:11;;;;;;;11.88;5.38;;;8.30;99.90;;;;;;5020029;28;20080;-79
2022/05/05 02:00:38;;;;;;;10.35;5.28;;;8.30;99.90;;;;;;5023540;28;20064;-79
2022/05/05 02:03:12;;;;;;;11.57;5.70;;;8.40;99.90;;;;;;5036268;28;20062;-79
2022/05/05 02:05:45;;;;;;;10.23;5.60;;;8.40;99.90;;;;;;5040290;28;20057;-80
2022/05/05 02:08:11;;;;;;;13.75;5.57;;;8.40;99.90;;;;;;5029972;28;20038;-79
2022/05/05 02:10:37;;;;;;;12.93;5.90;;;8.40;99.90;;;;;;5027546;28;20077;-78
2022/05/05 02:13:04;;;;;;;11.45;5.25;;;8.40;99.90;;;;;;5046625;28;20068;-79
2022/05/05 02:15:30;;;;;;;11.77;5.80;;;8.40;99.90;;;;;;5051771;28;21485;-80
2022/05/05 02:17:56;;;;;;;13.95;5.55;;;8.90;99.90;;;;;;5045544;28;20054;-79
2022/05/05 02:20:22;;;;;;;13.15;5.45;;;8.40;99.90;;;;;;5024186;28;20116;-80
2022/05/05 02:22:47;;;;;;;11.02;5.18;;;8.40;99.90;;;;;;5023851;28;20042;-79
2022/05/05 02:25:13;;;;;;;9.43;4.90;;;8.40;99.90;;;;;;5020170;28;20708;-79
2022/05/05 02:27:47;;;;;;;11.25;4.60;;;8.40;99.90;;;;;;5019728;28;20234;-80
2022/05/05 02:30:12;;;;;;;13.50;5.35;;;8.40;99.90;;;;;;5020098;28;20060;-79
2022/05/05 02:32:38;;;;;;;14.85;5.18;;;8.40;99.90;;;;;;5019104;28;20053;-78
2022/05/05 02:35:04;;;;;;;14.60;4.93;;;8.40;99.90;;;;;;5022602;28;20744;-79
2022/05/05 02:40:14;;;;;;;8.95;4.93;;;8.40;99.90;;;;;;5018728;28;20049;-79
2022/05/05 02:42:42;;;;;;;12.05;5.25;;;8.40;99.90;;;;;;5013556;28;20079;-81
2022/05/05 02:45:08;;;;;;;15.82;5.10;;;8.40;99.90;;;;;;5052230;28;20136;-79
2022/05/05 02:47:34;;;;;;;12.60;5.50;;;8.40;99.90;;;;;;5013431;28;20073;-79
2022/05/05 02:50:02;;;;;;;12.88;5.03;;;8.30;99.90;;;;;;5042417;28;20099;-78
2022/05/05 02:52:28;;;;;;;12.57;5.03;;;8.40;99.90;;;;;;5039251;28;20464;-78
2022/05/05 02:54:55;;;;;;;11.82;4.50;;;8.40;99.90;;;;;;5025406;28;20076;-78
2022/05/05 02:57:23;;;;;;;13.40;5.63;;;8.30;99.90;;;;;;5046170;28;20045;-79
2022/05/05 02:59:49;;;;;;;16.98;5.32;;;8.30;99.90;;;;;;5046865;28;20137;-79
2022/05/05 03:02:17;;;;;;;11.55;5.15;;;8.30;99.90;;;;;;5019642;28;20103;-78
2022/05/05 03:04:46;;;;;;;13.05;5.22;;;9.00;99.90;;;;;;5033140;28;20255;-79
2022/05/05 03:07:12;;;;;;;12.27;5.50;;;8.30;99.90;;;;;;5042370;28;20037;-78
2022/05/05 03:09:39;;;;;;;13.23;5.35;;;8.30;99.90;;;;;;5034598;28;20041;-79
2022/05/05 03:12:05;;;;;;;15.35;5.22;;;8.30;99.90;;;;;;5047525;28;20051;-78
2022/05/05 03:14:31;;;;;;;12.43;4.72;;;8.30;99.90;;;;;;5049690;28;20112;-78
2022/05/05 03:16:57;;;;;;;14.52;5.32;;;8.30;99.90;;;;;;5032982;28;20128;-79
2022/05/05 03:19:23;;;;;;;15.88;4.88;;;8.40;99.90;;;;;;5034701;28;20052;-77
2022/05/05 03:21:48;;;;;;;9.65;4.47;;;8.30;99.90;;;;;;5033412;28;20041;-79
2022/05/05 03:24:14;;;;;;;10.98;5.07;;;8.30;99.90;;;;;;5043061;28;20057;-79
2022/05/05 03:26:40;;;;;;;9.38;5.20;;;8.30;99.90;;;;;;5032478;28;20404;-79
2022/05/05 03:29:05;;;;;;;14.38;5.80;;;8.30;99.90;;;;;;5015709;28;20037;-81
2022/05/05 03:31:32;;;;;;;12.30;4.35;;;8.30;99.90;;;;;;5035119;28;20045;-80
2022/05/05 03:33:58;;;;;;;12.98;4.95;;;8.30;99.90;;;;;;5049110;28;20095;-79
2022/05/05 03:36:23;;;;;;;13.00;5.63;;;8.30;99.90;;;;;;5049515;28;20060;-79
2022/05/05 03:38:50;;;;;;;11.02;5.20;;;8.30;99.90;;;;;;5048463;28;20415;-79
2022/05/05 03:41:15;;;;;;;8.30;5.13;;;8.40;99.90;;;;;;5049516;28;20127;-79
2022/05/05 03:43:41;;;;;;;13.75;5.03;;;8.30;99.90;;;;;;5027303;28;20123;-79
2022/05/05 03:46:07;;;;;;;11.55;5.22;;;8.40;99.90;;;;;;5041444;28;20479;-79
2022/05/05 03:48:33;;;;;;;12.82;5.13;;;8.40;99.90;;;;;;5047210;28;20094;-80
2022/05/05 03:50:59;;;;;;;13.10;5.50;;;8.40;99.90;;;;;;5028503;28;20464;-80
2022/05/05 03:53:25;;;;;;;11.48;5.47;;;8.40;99.90;;;;;;5057237;28;20056;-80
2022/05/05 03:55:51;;;;;;;11.88;5.60;;;8.30;99.90;;;;;;5026445;28;21607;-79
2022/05/05 03:58:16;;;;;;;9.77;6.07;;;8.30;99.90;;;;;;5060415;28;20054;-80
2022/05/05 04:00:42;;;;;;;16.80;6.10;;;8.30;99.90;;;;;;5027189;28;20033;-80
2022/05/05 04:05:52;;;;;;;18.33;6.10;;;8.40;99.90;;;;;;5019309;28;20124;-81
2022/05/05 04:08:18;;;;;;;10.45;5.97;;;8.40;99.90;;;;;;5029626;28;20565;-80
2022/05/05 04:10:44;;;;;;;11.73;6.40;;;8.40;99.90;;;;;;5036794;28;20055;-81
2022/05/05 04:13:12;;;;;;;13.57;6.63;;;8.50;99.90;;;;;;5046519;28;21108;-81
2022/05/05 04:15:37;;;;;;;11.40;6.63;;;8.50;99.90;;;;;;5028550;28;20142;-79
2022/05/05 04:18:05;;;;;;;10.80;7.70;;;8.50;99.90;;;;;;5058388;28;20420;-80
2022/05/05 04:20:31;;;;;;;15.55;7.80;;;8.50;99.90;;;;;;5022094;28;20059;-79
2022/05/05 04:22:59;;;;;;;13.50;7.95;;;8.50;99.90;;;;;;5045056;28;20045;-79
2022/05/05 04:25:25;;;;;;;13.55;6.72;;;8.50;99.90;;;;;;5039579;28;20144;-79
2022/05/05 04:27:51;;;;;;;18.80;7.20;;;8.50;99.90;;;;;;5039589;28;20138;-80
2022/05/05 04:30:17;;;;;;;17.75;7.97;;;8.50;99.90;;;;;;5049341;28;20044;-80
2022/05/05 04:32:43;;;;;;;14.20;7.43;;;8.50;99.90;;;;;;5068451;28;20487;-79
2022/05/05 04:35:09;;;;;;;20.75;7.93;;;8.50;99.90;;;;;;5055663;28;20040;-80
2022/05/05 04:37:35;;;;;;;15.05;7.85;;;8.50;99.90;;;;;;5042938;28;20049;-80
2022/05/05 04:40:01;;;;;;;15.55;7.30;;;8.50;99.90;;;;;;5044119;28;20048;-80
2022/05/05 04:42:26;;;;;;;19.23;7.97;;;8.60;99.90;;;;;;5023779;28;20060;-80
2022/05/05 04:44:52;;;;;;;14.75;6.85;;;8.60;99.90;;;;;;5041210;28;20476;-81
2022/05/05 04:47:18;;;;;;;15.82;7.80;;;8.60;99.90;;;;;;5044632;28;20435;-79
2022/05/05 04:49:43;;;;;;;16.45;7.05;;;8.60;99.90;;;;;;5028816;28;20041;-80
2022/05/05 04:52:09;;;;;;;13.00;6.22;;;8.60;99.90;;;;;;5029285;28;20102;-80
2022/05/05 04:54:35;;;;;;;16.30;6.40;;;8.50;99.90;;;;;;5023911;28;20041;-80
2022/05/05 04:57:00;;;;;;;14.57;6.85;;;8.50;99.90;;;;;;5050010;28;20136;-80
2022/05/05 04:59:26;;;;;;;11.70;6.47;;;8.60;99.90;;;;;;5030301;28;20484;-81
2022/05/05 05:01:52;;;;;;;12.65;6.68;;;8.60;99.90;;;;;;5043996;28;20057;-81
2022/05/05 05:04:18;;;;;;;12.18;6.53;;;8.60;99.90;;;;;;5025380;28;22163;-81
2022/05/05 05:06:43;;;;;;;15.52;6.97;;;8.60;99.90;;;;;;5055528;28;20186;-79
2022/05/05 05:09:09;;;;;;;10.55;5.88;;;8.60;99.90;;;;;;5027845;28;20045;-80
2022/05/05 05:11:35;;;;;;;13.07;6.40;;;8.70;99.90;;;;;;5029131;28;20659;-80
2022/05/05 05:14:03;;;;;;;11.77;5.70;;;8.80;99.90;;;;;;5040983;28;20041;-80
2022/05/05 05:16:29;;;;;;;10.23;5.78;;;8.80;99.90;;;;;;5035394;28;20127;-81
2022/05/05 05:18:55;;;;;;;9.32;6.20;;;8.80;99.90;;;;;;5049657;28;20131;-80
2022/05/05 05:21:21;;;;;;;8.85;6.38;;;8.90;99.90;;;;;;5051264;28;21737;-80
2022/05/05 05:23:49;;;;;;;14.88;6.38;;;8.90;99.90;;;;;;5055449;28;20127;-80
2022/05/05 05:26:15;;;;;;;12.18;5.95;;;9.00;99.90;;;;;;5029681;28;20040;-81
2022/05/05 05:28:41;;;;;;;10.63;5.90;;;9.00;99.90;;;;;;5025940;28;20044;-80
2022/05/05 05:31:07;;;;;;;11.65;6.05;;;8.90;99.90;;;;;;5024154;28;20037;-81
2022/05/05 05:33:33;;;;;;;13.00;6.18;;;9.00;99.90;;;;;;5033997;28;22323;-80
2022/05/05 05:35:59;;;;;;;15.27;5.88;;;9.00;99.90;;;;;;5033195;28;20414;-79
2022/05/05 05:38:25;;;;;;;13.02;6.03;;;8.90;99.90;;;;;;5016938;28;20472;-81
2022/05/05 05:40:51;;;;;;;15.85;5.70;;;8.90;99.90;;;;;;5046417;28;20041;-80
2022/05/05 05:43:17;;;;;;;12.55;5.93;;;8.90;99.90;;;;;;5036638;28;20041;-81
2022/05/05 05:45:42;;;;;;;12.20;6.40;;;8.90;99.90;;;;;;5032097;28;20060;-81
2022/05/05 05:48:08;;;;;;;13.10;6.22;;;9.00;99.90;;;;;;5032278;28;20083;-82
2022/05/05 05:50:34;;;;;;;12.73;7.30;;;9.00;99.90;;;;;;5026021;28;20424;-81
2022/05/05 05:53:00;;;;;;;14.07;6.70;;;9.00;99.90;;;;;;5039849;28;20435;-80
2022/05/05 05:55:26;;;;;;;17.90;7.28;;;9.00;99.90;;;;;;5039619;28;20033;-81
2022/05/05 05:57:52;;;;;;;14.77;6.63;;;9.00;99.90;;;;;;5030217;28;20045;-82
2022/05/05 06:00:20;;;;;;;17.30;6.93;;;9.00;99.90;;;;;;5052491;28;20382;-80
2022/05/05 06:05:30;;;;;;;9.93;5.93;;;9.00;99.90;;;;;;5036187;28;20544;-79
2022/05/05 06:07:59;;;;;;;20.88;6.53;;;9.10;99.90;;;;;;5042717;28;20072;-79
2022/05/05 06:10:26;;;;;;;13.23;6.40;;;9.90;99.90;;;;;;5015972;28;20041;-78
2022/05/05 06:12:52;;;;;;;13.43;7.18;;;9.20;99.90;;;;;;5026251;28;20055;-79
2022/05/05 06:15:18;;;;;;;16.30;6.60;;;9.20;99.90;;;;;;5025384;28;20060;-80
2022/05/05 06:17:43;;;;;;;15.57;7.03;;;9.30;99.90;;;;;;5025280;28;20559;-79
2022/05/05 06:20:10;;;;;;;17.17;6.63;;;9.30;99.90;;;;;;5009339;28;20086;-79
2022/05/05 06:22:37;;;;;;;14.10;6.40;;;9.40;99.90;;;;;;5021945;28;20056;-79
2022/05/05 06:25:04;;;;;;;10.15;6.20;;;9.50;99.90;;;;;;5034674;28;20430;-80
2022/05/05 06:27:33;;;;;;;18.35;6.13;;;9.50;99.90;;;;;;5023905;28;20450;-79
2022/05/05 06:30:02;;;;;;;16.95;6.28;;;9.60;99.90;;;;;;5049779;28;20049;-80
2022/05/05 06:32:27;;;;;;;12.48;6.43;;;9.60;99.90;;;;;;5045629;28;20140;-83
2022/05/05 06:34:54;;;;;;;15.57;7.07;;;9.60;99.90;;;;;;5033888;28;20080;-82
2022/05/05 06:37:20;;;;;;;14.77;7.38;;;9.70;99.90;;;;;;5029294;28;20084;-83
2022/05/05 06:39:45;;;;;;;12.82;6.78;;;9.80;99.90;;;;;;5029369;28;20093;-82
2022/05/05 06:42:11;;;;;;;14.43;6.28;;;9.80;99.90;;;;;;5049173;28;20053;-83
2022/05/05 06:44:37;;;;;;;16.05;7.20;;;9.80;99.90;;;;;;5035485;28;20163;-82
2022/05/05 06:47:05;;;;;;;13.48;6.20;;;9.90;99.90;;;;;;5016253;28;20053;-83
2022/05/05 06:49:31;;;;;;;14.65;6.80;;;10.00;99.90;;;;;;5035553;28;20060;-84
2022/05/05 06:51:57;;;;;;;16.38;6.07;;;10.00;99.90;;;;;;5041568;28;20040;-84
2022/05/05 06:54:23;;;;;;;15.13;5.90;;;10.10;99.90;;;;;;5033044;28;20041;-83
2022/05/05 06:56:51;;;;;;;12.63;6.20;;;10.10;99.90;;;;;;5035984;28;20041;-80
2022/05/05 06:59:17;;;;;;;17.48;6.22;;;10.20;99.90;;;;;;5048062;28;20079;-81
2022/05/05 07:02:01;;;;;;;20.15;6.57;;;10.20;99.90;;;;;;5058801;28;20083;-81
2022/05/05 07:07:17;;;;;;;13.90;6.68;;;10.30;99.90;;;;;;5032347;28;20140;-81
2022/05/05 07:12:29;;;;;;;14.50;6.80;;;10.30;99.90;;;;;;5063935;28;20044;-81
2022/05/05 07:14:55;;;;;;;10.73;6.40;;;10.40;99.90;;;;;;5042075;28;20507;-82
2022/05/05 07:17:23;;;;;;;21.73;7.70;;;10.40;99.90;;;;;;5022423;28;20048;-82
2022/05/05 07:19:54;;;;;;;15.50;6.72;;;10.50;99.90;;;;;;5042689;28;20037;-82
2022/05/05 07:22:20;;;;;;;18.52;8.20;;;10.60;99.90;;;;;;5035706;28;20110;-84
2022/05/05 07:24:46;;;;;;;13.10;6.45;;;10.70;99.90;;;;;;5040975;28;20123;-84
2022/05/05 07:27:12;;;;;;;15.30;7.00;;;10.80;99.90;;;;;;5047412;28;20048;-83
2022/05/05 07:29:39;;;;;;;12.02;6.22;;;10.80;99.90;;;;;;5032510;28;20053;-82
2022/05/05 07:32:05;;;;;;;13.45;6.45;;;10.90;99.90;;;;;;5023955;28;20059;-84
2022/05/05 07:34:31;;;;;;;15.55;6.57;;;11.00;99.90;;;;;;5046738;28;20128;-83
2022/05/05 07:36:56;;;;;;;18.83;6.15;;;11.10;99.90;;;;;;5026843;28;20049;-83
2022/05/05 07:39:22;;;;;;;12.68;5.70;;;11.20;99.90;;;;;;5051610;28;20310;-83
2022/05/05 07:41:51;;;;;;;15.48;6.43;;;11.30;99.90;;;;;;5046731;28;20045;-82
2022/05/05 07:44:16;;;;;;;12.18;5.43;;;11.40;99.90;;;;;;5021085;28;20056;-83
2022/05/05 07:46:42;;;;;;;17.90;5.32;;;11.50;99.90;;;;;;5047541;28;20033;-83
2022/05/05 07:49:08;;;;;;;17.75;5.03;;;11.60;99.90;;;;;;5057327;28;20041;-83
2022/05/05 07:51:34;;;;;;;14.88;5.50;;;11.60;99.90;;;;;;5030019;28;20048;-82
2022/05/05 07:56:44;;;;;;;15.65;5.40;;;11.70;99.90;;;;;;5044756;28;20064;-84
2022/05/05 07:59:11;;;;;;;18.17;5.60;;;11.90;99.90;;;;;;5023115;28;20111;-83
2022/05/05 08:01:37;;;;;;;13.90;4.78;;;12.00;99.90;;;;;;5047706;28;20567;-84
2022/05/05 08:04:04;;;;;;;11.10;4.28;;;12.00;99.90;;;;;;5023284;28;20087;-83
2022/05/05 08:06:30;;;;;;;10.73;4.38;;;12.10;99.90;;;;;;5045092;28;20452;-80
2022/05/05 08:08:58;;;;;;;17.13;4.47;;;12.20;99.90;;;;;;5049607;28;20041;-83
2022/05/05 08:11:24;;;;;;;15.95;4.50;;;12.30;99.90;;;;;;5050293;28;20103;-83
2022/05/05 08:13:53;;;;;;;10.85;4.47;;;12.30;99.90;;;;;;5039730;28;20049;-83
2022/05/05 08:16:20;;;;;;;16.20;4.50;;;12.40;99.90;;;;;;5051225;28;20044;-83
2022/05/05 08:18:46;;;;;;;14.32;4.57;;;12.40;99.90;;;;;;5045468;28;20080;-83
2022/05/05 08:21:11;;;;;;;10.15;4.07;;;12.50;99.90;;;;;;5032808;28;20100;-82
2022/05/05 08:23:38;;;;;;;11.70;6.25;;;12.60;99.90;;;;;;5040284;28;20052;-83
2022/05/05 08:28:49;;;;;;;9.70;4.20;;;12.80;99.90;;;;;;5032193;28;20140;-81
2022/05/05 08:31:15;;;;;;;15.15;4.45;;;12.80;99.80;;;;;;5014572;28;20045;-81
2022/05/05 08:33:41;;;;;;;10.52;4.85;;;12.90;99.90;;;;;;5025429;28;20057;-81
2022/05/05 08:36:07;;;;;;;11.35;4.25;;;13.00;99.50;;;;;;5031287;28;20338;-82
2022/05/05 08:38:33;;;;;;;12.80;4.95;;;13.10;99.20;;;;;;5032882;28;20045;-81
2022/05/05 08:40:59;;;;;;;16.90;4.50;;;13.20;98.60;;;;;;5016781;28;20053;-80
2022/05/05 08:43:26;;;;;;;10.65;3.85;;;13.20;98.30;;;;;;5057645;28;20099;-79
2022/05/05 08:45:55;;;;;;;9.20;4.15;;;13.30;97.90;;;;;;5033431;28;20053;-80
2022/05/05 08:48:20;;;;;;;14.98;3.97;;;13.30;98.00;;;;;;5039032;28;20045;-74
2022/05/05 08:50:52;;;;;;;11.95;3.83;;;13.40;97.70;;;;;;5036345;28;20079;-78
2022/05/05 08:53:21;;;;;;;15.73;4.50;;;13.50;97.80;;;;;;5046324;28;20373;-79
2022/05/05 08:55:46;;;;;;;10.52;4.03;;;13.60;97.00;;;;;;5051570;28;20049;-79
2022/05/05 08:58:12;;;;;;;13.13;4.20;;;13.70;97.10;;;;;;5048112;28;20045;-79
2022/05/05 09:00:38;;;;;;;8.23;3.42;;;13.70;96.90;;;;;;5052005;28;20378;-78
2022/05/05 09:03:04;;;;;;;10.32;3.92;;;13.80;96.50;;;;;;5016807;28;20055;-79
2022/05/05 09:05:49;;;;;;;9.88;3.28;;;13.90;96.60;;;;;;5031180;28;20053;-76
2022/05/05 09:08:26;;;;;;;5.85;2.88;;;14.00;96.50;;;;;;5046239;28;20048;-78
2022/05/05 09:10:54;;;;;;;6.25;3.05;;;14.20;95.90;;;;;;5051355;28;20132;-80
2022/05/05 09:13:28;;;;;;;15.00;3.00;;;14.10;95.50;;;;;;5018161;28;20069;-77
2022/05/05 09:15:54;;;;;;;8.25;3.17;;;14.10;95.30;;;;;;5040734;28;20102;-79
2022/05/05 09:18:32;;;;;;;9.45;3.35;;;14.20;95.20;;;;;;5051520;28;20048;-79
2022/05/05 09:21:06;;;;;;;10.57;3.60;;;14.30;94.80;;;;;;5049749;28;20033;-79
2022/05/05 09:26:29;;;;;;;11.05;3.72;;;14.50;95.20;;;;;;5051141;28;20427;-77
2022/05/05 09:28:58;;;;;;;8.05;4.03;;;14.60;95.40;;;;;;5051582;28;20044;-78
2022/05/05 09:31:23;;;;;;;8.25;4.10;;;14.70;94.80;;;;;;5035675;28;20041;-79
2022/05/05 09:33:50;;;;;;;7.85;3.70;;;14.80;95.00;;;;;;5041672;28;20501;-77
2022/05/05 09:36:36;;;;;;;14.43;3.97;;;14.90;95.20;;;;;;5047130;28;20516;-77
2022/05/05 09:39:05;;;;;;;10.25;4.50;;;15.10;95.20;;;;;;5032472;28;20048;-80
2022/05/05 09:41:33;;;;;;;14.35;5.07;;;15.20;94.90;;;;;;5042551;28;20076;-79
2022/05/05 09:44:09;;;;;;;22.42;4.18;;;15.30;94.30;;;;;;5031842;28;20476;-80
2022/05/05 09:46:35;;;;;;;10.10;4.32;;;15.30;94.40;;;;;;5050894;28;20040;-80
2022/05/05 09:49:14;;;;;;;10.98;4.20;;;15.40;94.30;;;;;;5050696;28;20075;-78
2022/05/05 09:57:40;;;;;;;10.98;5.00;;;15.70;93.80;;;;;;5052423;28;20045;-81
2022/05/05 10:00:31;;;;;;;11.38;5.63;;;15.80;93.60;;;;;;5039082;28;20048;-80
2022/05/05 10:06:03;;;;;;;12.27;5.03;;;15.90;93.10;;;;;;5048424;28;20404;-82
2022/05/05 10:08:38;;;;;;;12.30;5.57;;;16.00;92.80;;;;;;5036339;28;20136;-81
2022/05/05 10:11:05;;;;;;;10.07;5.00;;;16.10;92.50;;;;;;5023439;28;20049;-80
2022/05/05 10:13:32;;;;;;;9.77;5.25;;;16.20;92.20;;;;;;5032104;28;20049;-79
2022/05/05 10:15:59;;;;;;;15.65;6.10;;;16.20;92.30;;;;;;5031270;28;20045;-81
2022/05/05 10:18:27;;;;;;;10.93;5.40;;;16.40;92.30;;;;;;5032461;28;20056;-80
2022/05/05 10:20:52;;;;;;;9.48;5.63;;;16.40;92.30;;;;;;5050450;28;20044;-81
2022/05/05 10:23:47;;;;;;;11.93;6.35;;;16.50;92.00;;;;;;5049348;28;20425;-82
2022/05/05 10:26:13;;;;;;;11.18;6.30;;;16.60;91.80;;;;;;5014407;28;20065;-81
2022/05/05 10:28:49;;;;;;;10.43;5.85;;;16.70;91.70;;;;;;5049477;28;20123;-81
2022/05/05 10:31:41;;;;;;;9.20;5.25;;;16.80;91.90;;;;;;5049289;28;20044;-81
2022/05/05 10:34:12;;;;;;;10.50;5.38;;;16.90;91.80;;;;;;5028975;28;20045;-81
2022/05/05 10:36:38;;;;;;;;;;;16.90;91.40;;;;;;5049004;28;20556;-81
2022/05/05 10:39:22;;;;;;;15.45;5.53;;;17.00;92.00;;;;;;5037769;28;20011;-81
2022/05/05 10:41:50;;;;;;;9.52;5.40;;;17.10;91.60;;;;;;5043020;28;20539;-80
2022/05/05 10:44:16;;;;;;;8.50;5.70;;;17.20;91.20;;;;;;5042996;28;20128;-81
2022/05/05 10:46:51;;;;;;;8.13;4.90;;;17.30;90.50;;;;;;5029439;28;20136;-80
2022/05/05 10:49:37;;;;;;;34.50;6.38;;;17.40;90.30;;;;;;5011111;28;20041;-82
2022/05/05 10:52:11;;;;;;;8.18;5.38;;;17.40;90.30;;;;;;5038249;28;20048;-82
2022/05/05 10:54:44;;;;;;;9.50;5.50;;;17.50;90.80;;;;;;5044230;28;20617;-82
2022/05/05 10:57:25;;;;;;;13.40;5.47;;;17.70;90.60;;;;;;5010556;28;20053;-81
2022/05/05 11:00:14;;;;;;;10.00;5.95;;;17.90;90.70;;;;;;5011850;28;20053;-81
2022/05/05 11:03:00;;;;;;;10.65;5.35;;;18.00;90.30;;;;;;5049873;28;20254;-82
2022/05/05 11:05:30;;;;;;;8.60;5.15;;;18.10;90.00;;;;;;5049517;28;20404;-81
2022/05/05 11:08:17;;;;;;;10.50;4.73;;;18.30;87.90;;;;;;5040429;28;20053;-81
2022/05/05 11:13:46;;;;;;;10.45;6.05;;;18.50;86.90;;;;;;5028417;28;20050;-81
2022/05/05 11:22:17;;;;;;;9.95;5.30;;;18.80;85.60;;;;;;5065602;28;20049;-82
2022/05/05 11:24:45;;;;;;;10.90;5.55;;;18.80;85.20;;;;;;5060499;28;20053;-79
2022/05/05 11:27:16;;;;;;;8.88;5.00;;;18.80;84.10;;;;;;5058011;28;20053;-81
2022/05/05 11:29:49;;;;;;;10.02;5.78;;;18.80;83.70;;;;;;5031035;28;20076;-81
2022/05/05 11:32:15;;;;;;;11.45;6.30;;;18.70;82.40;;;;;;5056477;28;20614;-81
2022/05/05 11:34:41;;;;;;;12.00;5.93;;;18.70;82.50;;;;;;5066809;28;20037;-81
2022/05/05 11:37:08;;;;;;;10.82;6.40;;;18.60;82.00;;;;;;5041252;28;20140;-81
2022/05/05 11:39:35;;;;;;;12.20;6.20;;;18.60;82.10;;;;;;5069195;28;20059;-81
2022/05/05 11:42:03;;;;;;;10.07;5.88;;;18.70;82.20;;;;;;5046026;28;20053;-81
2022/05/05 11:44:29;;;;;;;12.23;6.38;;;18.70;81.80;;;;;;5037412;28;20154;-80
2022/05/05 11:46:57;;;;;;;9.20;6.15;;;18.70;81.90;;;;;;5030962;28;20152;-81
2022/05/05 11:49:24;;;;;;;9.85;6.35;;;18.80;81.80;;;;;;5044665;28;20049;-82
2022/05/05 11:51:51;;;;;;;8.60;5.22;;;18.90;81.80;;;;;;5028429;28;20552;-82
2022/05/05 11:54:25;;;;;;;10.75;6.80;;;18.90;82.70;;;;;;5019632;28;20045;-82
2022/05/05 11:56:53;;;;;;;10.88;6.07;;;19.10;82.60;;;;;;5032668;28;20037;-82
2022/05/05 12:02:17;;;;;;;11.52;6.97;;;19.40;81.30;;;;;;5060633;28;20081;-82
2022/05/05 12:04:50;;;;;;;11.73;6.70;;;19.60;81.10;;;;;;5019580;28;20037;-81
2022/05/05 12:07:21;;;;;;;16.45;6.35;;;19.70;81.10;;;;;;5039596;28;20032;-81
2022/05/05 12:10:02;;;;;;;9.00;5.80;;;19.80;81.20;;;;;;5066459;28;20199;-82
2022/05/05 12:12:30;;;;;;;11.38;6.05;;;20.00;81.20;;;;;;5025844;28;20072;-82
2022/05/05 12:14:59;;;;;;;10.80;6.30;;;20.10;81.00;;;;;;5065505;28;20048;-82
2022/05/05 12:17:47;;;;;;;12.77;6.20;;;20.20;81.40;;;;;;5043387;28;20517;-81
2022/05/05 12:20:15;;;;;;;11.10;5.53;;;20.30;80.00;;;;;;5036407;28;20041;-81
2022/05/05 12:22:42;;;;;;;8.35;6.05;;;20.30;80.00;;;;;;5061959;28;20494;-82
2022/05/05 12:25:16;;;;;;;8.05;5.30;;;20.40;80.30;;;;;;5030008;28;20128;-81
2022/05/05 12:28:00;;;;;;;14.68;6.90;;;20.50;79.50;;;;;;5061479;28;20033;-81
2022/05/05 12:30:40;;;;;;;8.10;5.25;;;20.50;78.20;;;;;;5052744;28;20037;-83
2022/05/05 12:33:15;;;;;;;14.13;5.95;;;20.50;77.80;;;;;;5056207;28;20070;-81
2022/05/05 12:35:43;;;;;;;12.23;6.68;;;20.50;77.00;;;;;;5068003;28;20099;-81
2022/05/05 12:38:12;;;;;;;10.65;5.75;;;20.50;75.80;;;;;;5043730;28;20100;-82
2022/05/05 12:40:43;;;;;;;22.45;5.88;;;20.40;74.80;;;;;;5044803;28;20425;-81
2022/05/05 12:43:21;;;;;;;48.60;8.23;;;20.30;75.20;;;;;;5050841;28;20052;-81
2022/05/05 12:45:48;;;;;;;9.98;5.70;;;20.30;75.70;;;;;;5042553;28;20094;-83
2022/05/05 12:48:15;;;;;;;82.40;9.32;;;20.30;75.30;;;;;;5072530;28;20048;-81
2022/05/05 12:50:40;;;;;;;30.40;7.53;;;20.40;75.30;;;;;;5045782;28;20430;-82
2022/05/05 13:01:24;;;;;;;34.20;7.03;;;20.50;75.50;;;;;;5046924;28;20049;-80
2022/05/05 13:03:54;;;;;;;36.17;8.32;;;20.60;75.50;;;;;;5049484;28;20477;-82
2022/05/05 13:06:24;;;;;;;18.70;6.87;;;20.70;75.00;;;;;;5051292;28;20493;-81
2022/05/05 13:08:51;;;;;;;10.30;6.50;;;20.90;75.00;;;;;;5071875;28;20044;-81
2022/05/05 13:11:17;;;;;;;14.20;6.43;;;20.90;74.00;;;;;;5072818;28;20045;-81
2022/05/05 13:13:47;;;;;;;9.57;5.82;;;20.90;74.20;;;;;;5014315;28;20045;-81
2022/05/05 13:16:13;;;;;;;8.57;5.95;;;21.00;74.10;;;;;;5032435;28;20254;-81
2022/05/05 13:18:39;;;;;;;7.72;5.28;;;21.10;73.40;;;;;;5014086;28;20092;-83
2022/05/05 13:21:05;;;;;;;10.15;5.38;;;21.00;72.30;;;;;;5025746;28;20091;-81
2022/05/05 13:23:31;;;;;;;10.02;6.00;;;21.00;71.60;;;;;;5052800;28;20033;-82
2022/05/05 13:25:57;;;;;;;13.27;5.25;;;21.00;70.60;;;;;;5031000;28;20468;-83
2022/05/05 13:28:22;;;;;;;9.95;6.32;;;21.00;69.80;;;;;;5030592;28;20247;-82
2022/05/05 13:30:48;;;;;;;11.10;6.10;;;21.00;70.10;;;;;;5048333;28;20072;-82
2022/05/05 13:33:14;;;;;;;7.53;5.55;;;20.90;70.00;;;;;;5015325;28;20480;-81
2022/05/05 13:35:39;;;;;;;10.02;6.32;;;20.90;69.10;;;;;;5031381;28;20068;-81
2022/05/05 13:38:05;;;;;;;9.15;5.95;;;20.80;69.80;;;;;;5025988;28;20087;-81
2022/05/05 13:40:31;;;;;;;10.48;6.43;;;20.80;69.60;;;;;;5062523;28;20109;-82
2022/05/05 13:42:56;;;;;;;12.55;7.20;;;20.80;69.00;;;;;;5063162;28;20071;-82